sensor_id;sensor_type;location;lat;lon;timestamp;P1;durP1;ratioP1;P2;durP2;ratioP2
18168;SDS011;49877;50.398;30.324;2022-09-09T00:01:42;6.23;;;4.03;;
18168;SDS011;49877;50.398;30.324;2022-09-09T00:04:17;7.33;;;3.93;;
18168;SDS011;49877;50.398;30.324;2022-09-09T00:06:55;10.00;;;4.17;;
18168;SDS011;49877;50.398;30.324;2022-09-09T00:09:29;8.20;;;4.70;;
18168;SDS011;49877;50.398;30.324;2022-09-09T00:12:04;6.07;;;3.90;;
18168;SDS011;49877;50.398;30.324;2022-09-09T00:14:42;6.57;;;4.40;;
18168;SDS011;49877;50.398;30.324;2022-09-09T00:17:20;6.97;;;4.30;;
18168;SDS011;49877;50.398;30.324;2022-09-09T00:19:58;7.90;;;4.40;;
18168;SDS011;49877;50.398;30.324;2022-09-09T00:22:29;7.30;;;4.10;;
18168;SDS011;49877;50.398;30.324;2022-09-09T00:24:58;6.83;;;4.30;;
18168;SDS011;49877;50.398;30.324;2022-09-09T00:27:29;6.57;;;4.40;;
18168;SDS011;49877;50.398;30.324;2022-09-09T00:30:13;6.27;;;4.20;;
18168;SDS011;49877;50.398;30.324;2022-09-09T00:32:44;7.10;;;4.17;;
18168;SDS011;49877;50.398;30.324;2022-09-09T00:35:14;6.77;;;4.10;;
18168;SDS011;49877;50.398;30.324;2022-09-09T00:37:44;7.60;;;4.20;;
18168;SDS011;49877;50.398;30.324;2022-09-09T00:40:18;7.30;;;4.47;;
18168;SDS011;49877;50.398;30.324;2022-09-09T00:42:49;7.97;;;4.13;;
18168;SDS011;49877;50.398;30.324;2022-09-09T00:45:30;7.43;;;4.30;;
18168;SDS011;49877;50.398;30.324;2022-09-09T00:48:08;6.73;;;4.27;;
18168;SDS011;49877;50.398;30.324;2022-09-09T00:50:40;7.60;;;4.03;;
18168;SDS011;49877;50.398;30.324;2022-09-09T00:53:20;6.90;;;4.03;;
18168;SDS011;49877;50.398;30.324;2022-09-09T00:55:58;9.17;;;4.60;;
18168;SDS011;49877;50.398;30.324;2022-09-09T00:58:33;7.93;;;4.20;;
18168;SDS011;49877;50.398;30.324;2022-09-09T01:01:02;8.07;;;4.10;;
18168;SDS011;49877;50.398;30.324;2022-09-09T01:03:34;6.70;;;4.30;;
18168;SDS011;49877;50.398;30.324;2022-09-09T01:06:12;7.73;;;4.27;;
18168;SDS011;49877;50.398;30.324;2022-09-09T01:11:32;5.30;;;3.73;;
18168;SDS011;49877;50.398;30.324;2022-09-09T01:14:10;5.97;;;3.70;;
18168;SDS011;49877;50.398;30.324;2022-09-09T01:16:46;6.23;;;4.17;;
18168;SDS011;49877;50.398;30.324;2022-09-09T01:19:16;6.97;;;4.27;;
18168;SDS011;49877;50.398;30.324;2022-09-09T01:21:53;6.40;;;3.97;;
18168;SDS011;49877;50.398;30.324;2022-09-09T01:24:29;5.43;;;3.67;;
18168;SDS011;49877;50.398;30.324;2022-09-09T01:27:05;7.30;;;4.10;;
18168;SDS011;49877;50.398;30.324;2022-09-09T01:29:34;7.23;;;4.47;;
18168;SDS011;49877;50.398;30.324;2022-09-09T01:32:35;7.60;;;3.87;;
18168;SDS011;49877;50.398;30.324;2022-09-09T01:35:06;6.07;;;4.13;;
18168;SDS011;49877;50.398;30.324;2022-09-09T01:37:37;6.63;;;4.20;;
18168;SDS011;49877;50.398;30.324;2022-09-09T01:40:04;8.23;;;4.40;;
18168;SDS011;49877;50.398;30.324;2022-09-09T01:42:33;7.47;;;4.10;;
18168;SDS011;49877;50.398;30.324;2022-09-09T01:45:00;7.60;;;4.30;;
18168;SDS011;49877;50.398;30.324;2022-09-09T01:47:27;6.53;;;3.73;;
18168;SDS011;49877;50.398;30.324;2022-09-09T01:49:54;7.60;;;4.17;;
18168;SDS011;49877;50.398;30.324;2022-09-09T01:52:20;6.33;;;4.10;;
18168;SDS011;49877;50.398;30.324;2022-09-09T01:54:48;8.20;;;3.73;;
18168;SDS011;49877;50.398;30.324;2022-09-09T01:57:15;6.00;;;3.97;;
18168;SDS011;49877;50.398;30.324;2022-09-09T01:59:50;6.07;;;3.80;;
18168;SDS011;49877;50.398;30.324;2022-09-09T02:02:30;7.93;;;4.30;;
18168;SDS011;49877;50.398;30.324;2022-09-09T02:05:03;7.33;;;4.17;;
18168;SDS011;49877;50.398;30.324;2022-09-09T02:07:39;7.73;;;4.53;;
18168;SDS011;49877;50.398;30.324;2022-09-09T02:10:09;7.60;;;4.27;;
18168;SDS011;49877;50.398;30.324;2022-09-09T02:12:39;5.90;;;4.23;;
18168;SDS011;49877;50.398;30.324;2022-09-09T02:15:14;6.77;;;4.30;;
18168;SDS011;49877;50.398;30.324;2022-09-09T02:17:45;7.80;;;4.17;;
18168;SDS011;49877;50.398;30.324;2022-09-09T02:20:16;6.33;;;4.07;;
18168;SDS011;49877;50.398;30.324;2022-09-09T02:22:47;6.67;;;3.90;;
18168;SDS011;49877;50.398;30.324;2022-09-09T02:25:18;7.90;;;4.20;;
18168;SDS011;49877;50.398;30.324;2022-09-09T02:27:47;6.60;;;4.00;;
18168;SDS011;49877;50.398;30.324;2022-09-09T02:30:18;5.50;;;3.80;;
18168;SDS011;49877;50.398;30.324;2022-09-09T02:32:46;6.87;;;4.10;;
18168;SDS011;49877;50.398;30.324;2022-09-09T02:35:15;7.00;;;4.17;;
18168;SDS011;49877;50.398;30.324;2022-09-09T02:37:46;6.30;;;4.30;;
18168;SDS011;49877;50.398;30.324;2022-09-09T02:40:13;7.43;;;4.30;;
18168;SDS011;49877;50.398;30.324;2022-09-09T02:42:41;6.43;;;4.07;;
18168;SDS011;49877;50.398;30.324;2022-09-09T02:45:10;9.23;;;4.23;;
18168;SDS011;49877;50.398;30.324;2022-09-09T02:47:43;6.77;;;4.20;;
18168;SDS011;49877;50.398;30.324;2022-09-09T02:50:17;7.07;;;4.23;;
18168;SDS011;49877;50.398;30.324;2022-09-09T02:52:53;7.07;;;4.17;;
18168;SDS011;49877;50.398;30.324;2022-09-09T02:55:29;6.70;;;4.43;;
18168;SDS011;49877;50.398;30.324;2022-09-09T02:58:05;6.83;;;4.20;;
18168;SDS011;49877;50.398;30.324;2022-09-09T03:00:36;6.27;;;4.20;;
18168;SDS011;49877;50.398;30.324;2022-09-09T03:03:05;9.80;;;4.40;;
18168;SDS011;49877;50.398;30.324;2022-09-09T03:05:34;6.20;;;4.03;;
18168;SDS011;49877;50.398;30.324;2022-09-09T03:08:01;8.77;;;4.37;;
18168;SDS011;49877;50.398;30.324;2022-09-09T03:10:29;7.33;;;4.43;;
18168;SDS011;49877;50.398;30.324;2022-09-09T03:12:56;6.87;;;4.10;;
18168;SDS011;49877;50.398;30.324;2022-09-09T03:15:23;6.07;;;4.00;;
18168;SDS011;49877;50.398;30.324;2022-09-09T03:17:54;6.33;;;4.33;;
18168;SDS011;49877;50.398;30.324;2022-09-09T03:20:23;6.83;;;3.70;;
18168;SDS011;49877;50.398;30.324;2022-09-09T03:22:51;6.00;;;4.10;;
18168;SDS011;49877;50.398;30.324;2022-09-09T03:25:18;7.33;;;4.33;;
18168;SDS011;49877;50.398;30.324;2022-09-09T03:27:46;6.80;;;4.17;;
18168;SDS011;49877;50.398;30.324;2022-09-09T03:30:13;7.50;;;4.23;;
18168;SDS011;49877;50.398;30.324;2022-09-09T03:32:40;9.33;;;5.03;;
18168;SDS011;49877;50.398;30.324;2022-09-09T03:35:07;7.37;;;4.53;;
18168;SDS011;49877;50.398;30.324;2022-09-09T03:37:36;8.33;;;5.10;;
18168;SDS011;49877;50.398;30.324;2022-09-09T03:40:04;7.07;;;4.70;;
18168;SDS011;49877;50.398;30.324;2022-09-09T03:42:32;11.93;;;7.60;;
18168;SDS011;49877;50.398;30.324;2022-09-09T03:44:58;8.03;;;5.00;;
18168;SDS011;49877;50.398;30.324;2022-09-09T03:47:25;8.67;;;5.20;;
18168;SDS011;49877;50.398;30.324;2022-09-09T03:49:52;8.17;;;5.10;;
18168;SDS011;49877;50.398;30.324;2022-09-09T03:52:19;7.23;;;4.33;;
18168;SDS011;49877;50.398;30.324;2022-09-09T03:54:48;8.60;;;5.10;;
18168;SDS011;49877;50.398;30.324;2022-09-09T03:57:15;8.70;;;4.60;;
18168;SDS011;49877;50.398;30.324;2022-09-09T03:59:42;8.23;;;4.37;;
18168;SDS011;49877;50.398;30.324;2022-09-09T04:02:09;6.97;;;4.23;;
18168;SDS011;49877;50.398;30.324;2022-09-09T04:04:36;8.93;;;4.03;;
18168;SDS011;49877;50.398;30.324;2022-09-09T04:07:03;6.93;;;3.93;;
18168;SDS011;49877;50.398;30.324;2022-09-09T04:09:32;7.83;;;3.97;;
18168;SDS011;49877;50.398;30.324;2022-09-09T04:12:01;12.63;;;7.10;;
18168;SDS011;49877;50.398;30.324;2022-09-09T04:14:28;12.67;;;5.57;;
18168;SDS011;49877;50.398;30.324;2022-09-09T04:16:55;12.53;;;4.50;;
18168;SDS011;49877;50.398;30.324;2022-09-09T04:19:23;7.50;;;3.97;;
18168;SDS011;49877;50.398;30.324;2022-09-09T04:21:50;7.10;;;4.40;;
18168;SDS011;49877;50.398;30.324;2022-09-09T04:24:17;10.13;;;4.40;;
18168;SDS011;49877;50.398;30.324;2022-09-09T04:26:44;6.73;;;4.67;;
18168;SDS011;49877;50.398;30.324;2022-09-09T04:29:13;8.53;;;4.17;;
18168;SDS011;49877;50.398;30.324;2022-09-09T04:31:40;7.00;;;4.37;;
18168;SDS011;49877;50.398;30.324;2022-09-09T04:34:08;6.63;;;4.20;;
18168;SDS011;49877;50.398;30.324;2022-09-09T04:36:35;7.50;;;4.43;;
18168;SDS011;49877;50.398;30.324;2022-09-09T04:39:02;6.87;;;4.13;;
18168;SDS011;49877;50.398;30.324;2022-09-09T04:41:29;6.70;;;4.77;;
18168;SDS011;49877;50.398;30.324;2022-09-09T04:43:56;6.30;;;4.30;;
18168;SDS011;49877;50.398;30.324;2022-09-09T04:46:26;8.20;;;5.03;;
18168;SDS011;49877;50.398;30.324;2022-09-09T04:48:53;9.60;;;5.00;;
18168;SDS011;49877;50.398;30.324;2022-09-09T04:51:20;10.20;;;4.97;;
18168;SDS011;49877;50.398;30.324;2022-09-09T04:53:47;7.43;;;4.40;;
18168;SDS011;49877;50.398;30.324;2022-09-09T04:56:16;10.63;;;4.87;;
18168;SDS011;49877;50.398;30.324;2022-09-09T04:58:44;8.13;;;4.67;;
18168;SDS011;49877;50.398;30.324;2022-09-09T05:01:11;6.23;;;4.37;;
18168;SDS011;49877;50.398;30.324;2022-09-09T05:03:41;11.30;;;4.80;;
18168;SDS011;49877;50.398;30.324;2022-09-09T05:06:11;7.83;;;4.40;;
18168;SDS011;49877;50.398;30.324;2022-09-09T05:08:39;7.57;;;4.50;;
18168;SDS011;49877;50.398;30.324;2022-09-09T05:11:12;6.37;;;4.20;;
18168;SDS011;49877;50.398;30.324;2022-09-09T05:13:41;8.97;;;4.50;;
18168;SDS011;49877;50.398;30.324;2022-09-09T05:16:08;7.53;;;3.90;;
18168;SDS011;49877;50.398;30.324;2022-09-09T05:18:36;10.40;;;4.83;;
18168;SDS011;49877;50.398;30.324;2022-09-09T05:21:04;6.87;;;4.47;;
18168;SDS011;49877;50.398;30.324;2022-09-09T05:23:31;7.97;;;4.27;;
18168;SDS011;49877;50.398;30.324;2022-09-09T05:25:59;6.93;;;4.57;;
18168;SDS011;49877;50.398;30.324;2022-09-09T05:28:26;9.20;;;4.63;;
18168;SDS011;49877;50.398;30.324;2022-09-09T05:30:57;8.73;;;4.27;;
18168;SDS011;49877;50.398;30.324;2022-09-09T05:33:25;5.97;;;4.00;;
18168;SDS011;49877;50.398;30.324;2022-09-09T05:35:58;6.30;;;3.97;;
18168;SDS011;49877;50.398;30.324;2022-09-09T05:38:27;7.97;;;3.97;;
18168;SDS011;49877;50.398;30.324;2022-09-09T05:40:55;6.33;;;3.90;;
18168;SDS011;49877;50.398;30.324;2022-09-09T05:43:22;7.47;;;3.90;;
18168;SDS011;49877;50.398;30.324;2022-09-09T05:45:58;7.77;;;3.80;;
18168;SDS011;49877;50.398;30.324;2022-09-09T05:48:27;7.20;;;3.63;;
18168;SDS011;49877;50.398;30.324;2022-09-09T05:50:55;7.40;;;3.67;;
18168;SDS011;49877;50.398;30.324;2022-09-09T05:53:22;8.47;;;3.80;;
18168;SDS011;49877;50.398;30.324;2022-09-09T05:55:57;5.17;;;3.37;;
18168;SDS011;49877;50.398;30.324;2022-09-09T05:58:25;5.17;;;3.40;;
18168;SDS011;49877;50.398;30.324;2022-09-09T06:00:52;4.97;;;3.00;;
18168;SDS011;49877;50.398;30.324;2022-09-09T06:03:20;9.70;;;3.80;;
18168;SDS011;49877;50.398;30.324;2022-09-09T06:05:56;6.37;;;3.60;;
18168;SDS011;49877;50.398;30.324;2022-09-09T06:08:23;7.13;;;3.63;;
18168;SDS011;49877;50.398;30.324;2022-09-09T06:10:52;8.00;;;3.57;;
18168;SDS011;49877;50.398;30.324;2022-09-09T06:13:18;5.73;;;3.60;;
18168;SDS011;49877;50.398;30.324;2022-09-09T06:15:49;6.80;;;3.30;;
18168;SDS011;49877;50.398;30.324;2022-09-09T06:18:17;6.27;;;3.30;;
18168;SDS011;49877;50.398;30.324;2022-09-09T06:33:50;4.63;;;3.07;;
18168;SDS011;49877;50.398;30.324;2022-09-09T06:36:21;7.50;;;3.60;;
18168;SDS011;49877;50.398;30.324;2022-09-09T06:38:49;5.60;;;3.33;;
18168;SDS011;49877;50.398;30.324;2022-09-09T06:41:16;9.17;;;3.57;;
18168;SDS011;49877;50.398;30.324;2022-09-09T06:43:44;6.83;;;3.83;;
18168;SDS011;49877;50.398;30.324;2022-09-09T06:46:12;7.90;;;3.60;;
18168;SDS011;49877;50.398;30.324;2022-09-09T06:48:41;12.17;;;3.40;;
18168;SDS011;49877;50.398;30.324;2022-09-09T06:51:11;9.90;;;3.43;;
18168;SDS011;49877;50.398;30.324;2022-09-09T06:53:39;10.30;;;3.60;;
18168;SDS011;49877;50.398;30.324;2022-09-09T06:56:20;6.67;;;3.07;;
18168;SDS011;49877;50.398;30.324;2022-09-09T06:58:49;9.50;;;4.23;;
18168;SDS011;49877;50.398;30.324;2022-09-09T07:01:17;22.50;;;4.83;;
18168;SDS011;49877;50.398;30.324;2022-09-09T07:03:46;10.57;;;3.77;;
18168;SDS011;49877;50.398;30.324;2022-09-09T07:06:17;12.13;;;6.20;;
18168;SDS011;49877;50.398;30.324;2022-09-09T07:08:48;8.67;;;3.70;;
18168;SDS011;49877;50.398;30.324;2022-09-09T07:11:16;8.43;;;3.33;;
18168;SDS011;49877;50.398;30.324;2022-09-09T07:13:44;9.03;;;3.60;;
18168;SDS011;49877;50.398;30.324;2022-09-09T07:16:11;15.00;;;3.70;;
18168;SDS011;49877;50.398;30.324;2022-09-09T07:18:39;8.20;;;3.50;;
18168;SDS011;49877;50.398;30.324;2022-09-09T07:21:07;9.63;;;3.27;;
18168;SDS011;49877;50.398;30.324;2022-09-09T07:23:36;9.80;;;3.30;;
18168;SDS011;49877;50.398;30.324;2022-09-09T07:26:06;8.90;;;3.03;;
18168;SDS011;49877;50.398;30.324;2022-09-09T07:28:34;5.53;;;3.10;;
18168;SDS011;49877;50.398;30.324;2022-09-09T07:31:01;8.47;;;3.50;;
18168;SDS011;49877;50.398;30.324;2022-09-09T07:33:29;11.20;;;3.57;;
18168;SDS011;49877;50.398;30.324;2022-09-09T07:36:01;6.87;;;3.30;;
18168;SDS011;49877;50.398;30.324;2022-09-09T07:38:30;8.40;;;3.23;;
18168;SDS011;49877;50.398;30.324;2022-09-09T07:41:03;7.87;;;3.20;;
18168;SDS011;49877;50.398;30.324;2022-09-09T07:43:31;11.13;;;3.53;;
18168;SDS011;49877;50.398;30.324;2022-09-09T07:45:59;6.73;;;3.50;;
18168;SDS011;49877;50.398;30.324;2022-09-09T07:48:27;21.90;;;4.83;;
18168;SDS011;49877;50.398;30.324;2022-09-09T07:51:02;9.13;;;3.10;;
18168;SDS011;49877;50.398;30.324;2022-09-09T07:53:33;4.63;;;2.97;;
18168;SDS011;49877;50.398;30.324;2022-09-09T07:56:07;9.70;;;3.23;;
18168;SDS011;49877;50.398;30.324;2022-09-09T07:58:35;17.43;;;3.57;;
18168;SDS011;49877;50.398;30.324;2022-09-09T08:01:06;7.97;;;3.30;;
18168;SDS011;49877;50.398;30.324;2022-09-09T08:03:34;14.63;;;6.90;;
18168;SDS011;49877;50.398;30.324;2022-09-09T08:06:02;8.43;;;3.80;;
18168;SDS011;49877;50.398;30.324;2022-09-09T08:08:29;4.53;;;2.80;;
18168;SDS011;49877;50.398;30.324;2022-09-09T08:11:01;7.17;;;3.03;;
18168;SDS011;49877;50.398;30.324;2022-09-09T08:13:31;10.90;;;3.33;;
18168;SDS011;49877;50.398;30.324;2022-09-09T08:16:03;8.37;;;3.30;;
18168;SDS011;49877;50.398;30.324;2022-09-09T08:18:31;5.10;;;2.90;;
18168;SDS011;49877;50.398;30.324;2022-09-09T08:21:04;6.03;;;2.70;;
18168;SDS011;49877;50.398;30.324;2022-09-09T08:23:33;9.80;;;2.70;;
18168;SDS011;49877;50.398;30.324;2022-09-09T08:26:03;10.87;;;2.87;;
18168;SDS011;49877;50.398;30.324;2022-09-09T08:28:38;5.57;;;2.57;;
18168;SDS011;49877;50.398;30.324;2022-09-09T08:31:12;5.60;;;2.77;;
18168;SDS011;49877;50.398;30.324;2022-09-09T08:33:40;3.23;;;2.70;;
18168;SDS011;49877;50.398;30.324;2022-09-09T08:36:11;7.87;;;2.93;;
18168;SDS011;49877;50.398;30.324;2022-09-09T08:38:40;10.47;;;2.70;;
18168;SDS011;49877;50.398;30.324;2022-09-09T08:44:03;6.93;;;2.60;;
18168;SDS011;49877;50.398;30.324;2022-09-09T08:46:35;9.90;;;2.47;;
18168;SDS011;49877;50.398;30.324;2022-09-09T08:52:15;2.70;;;2.20;;
18168;SDS011;49877;50.398;30.324;2022-09-09T08:54:44;4.47;;;2.73;;
18168;SDS011;49877;50.398;30.324;2022-09-09T08:57:13;6.03;;;2.50;;
18168;SDS011;49877;50.398;30.324;2022-09-09T08:59:46;8.60;;;2.70;;
18168;SDS011;49877;50.398;30.324;2022-09-09T09:02:14;4.00;;;2.27;;
18168;SDS011;49877;50.398;30.324;2022-09-09T09:04:48;7.37;;;2.33;;
18168;SDS011;49877;50.398;30.324;2022-09-09T09:07:24;8.93;;;2.77;;
18168;SDS011;49877;50.398;30.324;2022-09-09T09:10:09;18.13;;;3.00;;
18168;SDS011;49877;50.398;30.324;2022-09-09T09:12:41;3.40;;;2.60;;
18168;SDS011;49877;50.398;30.324;2022-09-09T09:15:16;4.63;;;2.80;;
18168;SDS011;49877;50.398;30.324;2022-09-09T09:17:47;5.97;;;2.70;;
18168;SDS011;49877;50.398;30.324;2022-09-09T09:20:15;7.23;;;2.93;;
18168;SDS011;49877;50.398;30.324;2022-09-09T09:22:47;6.27;;;3.30;;
18168;SDS011;49877;50.398;30.324;2022-09-09T09:25:16;6.23;;;2.80;;
18168;SDS011;49877;50.398;30.324;2022-09-09T09:27:46;11.70;;;2.60;;
18168;SDS011;49877;50.398;30.324;2022-09-09T09:30:22;3.07;;;2.20;;
18168;SDS011;49877;50.398;30.324;2022-09-09T09:32:51;3.67;;;2.40;;
18168;SDS011;49877;50.398;30.324;2022-09-09T09:35:21;3.93;;;2.70;;
18168;SDS011;49877;50.398;30.324;2022-09-09T09:37:48;5.17;;;2.60;;
18168;SDS011;49877;50.398;30.324;2022-09-09T09:40:17;5.43;;;2.20;;
18168;SDS011;49877;50.398;30.324;2022-09-09T09:42:48;11.27;;;2.20;;
18168;SDS011;49877;50.398;30.324;2022-09-09T09:45:20;13.33;;;2.70;;
18168;SDS011;49877;50.398;30.324;2022-09-09T09:48:02;6.93;;;2.40;;
18168;SDS011;49877;50.398;30.324;2022-09-09T09:50:31;23.83;;;3.33;;
18168;SDS011;49877;50.398;30.324;2022-09-09T09:53:00;7.80;;;2.33;;
18168;SDS011;49877;50.398;30.324;2022-09-09T09:55:29;8.43;;;3.00;;
18168;SDS011;49877;50.398;30.324;2022-09-09T09:58:02;5.23;;;2.20;;
18168;SDS011;49877;50.398;30.324;2022-09-09T10:00:31;3.20;;;2.17;;
18168;SDS011;49877;50.398;30.324;2022-09-09T10:03:00;5.17;;;2.20;;
18168;SDS011;49877;50.398;30.324;2022-09-09T10:05:28;8.60;;;2.60;;
18168;SDS011;49877;50.398;30.324;2022-09-09T10:08:00;7.37;;;2.40;;
18168;SDS011;49877;50.398;30.324;2022-09-09T10:10:34;13.23;;;4.60;;
18168;SDS011;49877;50.398;30.324;2022-09-09T10:13:17;10.23;;;4.83;;
18168;SDS011;49877;50.398;30.324;2022-09-09T10:15:54;10.37;;;3.80;;
18168;SDS011;49877;50.398;30.324;2022-09-09T10:18:36;8.17;;;3.97;;
18168;SDS011;49877;50.398;30.324;2022-09-09T10:21:16;5.03;;;2.30;;
18168;SDS011;49877;50.398;30.324;2022-09-09T10:24:04;4.83;;;2.20;;
18168;SDS011;49877;50.398;30.324;2022-09-09T10:26:40;3.57;;;2.00;;
18168;SDS011;49877;50.398;30.324;2022-09-09T10:29:18;7.63;;;2.30;;
18168;SDS011;49877;50.398;30.324;2022-09-09T10:31:59;3.77;;;2.10;;
18168;SDS011;49877;50.398;30.324;2022-09-09T10:34:42;5.20;;;2.47;;
18168;SDS011;49877;50.398;30.324;2022-09-09T10:37:35;4.87;;;1.97;;
18168;SDS011;49877;50.398;30.324;2022-09-09T10:40:26;7.97;;;2.33;;
18168;SDS011;49877;50.398;30.324;2022-09-09T10:43:00;3.57;;;2.10;;
18168;SDS011;49877;50.398;30.324;2022-09-09T10:45:37;5.40;;;1.93;;
18168;SDS011;49877;50.398;30.324;2022-09-09T10:48:18;5.40;;;2.37;;
18168;SDS011;49877;50.398;30.324;2022-09-09T10:50:58;6.35;;;2.30;;
18168;SDS011;49877;50.398;30.324;2022-09-09T10:53:43;4.97;;;1.87;;
18168;SDS011;49877;50.398;30.324;2022-09-09T10:56:17;5.80;;;2.37;;
18168;SDS011;49877;50.398;30.324;2022-09-09T10:58:47;20.33;;;3.30;;
18168;SDS011;49877;50.398;30.324;2022-09-09T11:01:18;6.10;;;2.53;;
18168;SDS011;49877;50.398;30.324;2022-09-09T11:03:51;5.23;;;2.33;;
18168;SDS011;49877;50.398;30.324;2022-09-09T11:06:22;2.47;;;1.87;;
18168;SDS011;49877;50.398;30.324;2022-09-09T11:08:55;4.03;;;2.00;;
18168;SDS011;49877;50.398;30.324;2022-09-09T11:11:27;6.13;;;2.00;;
18168;SDS011;49877;50.398;30.324;2022-09-09T11:13:59;5.20;;;1.70;;
18168;SDS011;49877;50.398;30.324;2022-09-09T11:16:33;2.77;;;1.80;;
18168;SDS011;49877;50.398;30.324;2022-09-09T11:19:11;4.30;;;1.97;;
18168;SDS011;49877;50.398;30.324;2022-09-09T11:21:44;4.13;;;2.00;;
18168;SDS011;49877;50.398;30.324;2022-09-09T11:24:14;5.20;;;2.40;;
18168;SDS011;49877;50.398;30.324;2022-09-09T11:26:47;11.57;;;2.43;;
18168;SDS011;49877;50.398;30.324;2022-09-09T11:29:22;5.93;;;2.40;;
18168;SDS011;49877;50.398;30.324;2022-09-09T11:32:16;5.17;;;2.10;;
18168;SDS011;49877;50.398;30.324;2022-09-09T11:34:56;3.90;;;1.80;;
18168;SDS011;49877;50.398;30.324;2022-09-09T11:37:54;8.10;;;2.10;;
18168;SDS011;49877;50.398;30.324;2022-09-09T11:40:40;3.17;;;1.77;;
18168;SDS011;49877;50.398;30.324;2022-09-09T11:43:09;4.67;;;1.83;;
18168;SDS011;49877;50.398;30.324;2022-09-09T11:45:38;6.67;;;2.17;;
18168;SDS011;49877;50.398;30.324;2022-09-09T11:48:20;5.90;;;2.17;;
18168;SDS011;49877;50.398;30.324;2022-09-09T11:50:58;6.73;;;2.00;;
18168;SDS011;49877;50.398;30.324;2022-09-09T11:53:28;7.57;;;2.10;;
18168;SDS011;49877;50.398;30.324;2022-09-09T11:56:05;3.27;;;1.77;;
18168;SDS011;49877;50.398;30.324;2022-09-09T11:58:39;13.57;;;2.20;;
18168;SDS011;49877;50.398;30.324;2022-09-09T12:06:56;4.70;;;2.93;;
18168;SDS011;49877;50.398;30.324;2022-09-09T12:09:28;6.13;;;1.90;;
18168;SDS011;49877;50.398;30.324;2022-09-09T12:14:57;6.10;;;2.20;;
18168;SDS011;49877;50.398;30.324;2022-09-09T12:17:30;4.90;;;1.83;;
18168;SDS011;49877;50.398;30.324;2022-09-09T12:20:03;3.27;;;1.90;;
18168;SDS011;49877;50.398;30.324;2022-09-09T12:22:40;7.07;;;2.60;;
18168;SDS011;49877;50.398;30.324;2022-09-09T12:25:19;5.27;;;2.10;;
18168;SDS011;49877;50.398;30.324;2022-09-09T12:27:57;6.33;;;1.90;;
18168;SDS011;49877;50.398;30.324;2022-09-09T12:30:29;30.43;;;3.87;;
18168;SDS011;49877;50.398;30.324;2022-09-09T12:33:02;8.83;;;2.30;;
18168;SDS011;49877;50.398;30.324;2022-09-09T12:35:34;9.63;;;2.00;;
18168;SDS011;49877;50.398;30.324;2022-09-09T12:38:05;3.93;;;2.00;;
18168;SDS011;49877;50.398;30.324;2022-09-09T12:40:37;2.67;;;1.90;;
18168;SDS011;49877;50.398;30.324;2022-09-09T12:43:15;4.27;;;1.87;;
18168;SDS011;49877;50.398;30.324;2022-09-09T12:45:45;4.63;;;1.70;;
18168;SDS011;49877;50.398;30.324;2022-09-09T12:48:12;4.37;;;1.60;;
18168;SDS011;49877;50.398;30.324;2022-09-09T12:50:43;4.20;;;1.90;;
18168;SDS011;49877;50.398;30.324;2022-09-09T12:53:15;2.53;;;1.70;;
18168;SDS011;49877;50.398;30.324;2022-09-09T12:55:49;4.40;;;1.80;;
18168;SDS011;49877;50.398;30.324;2022-09-09T12:58:18;8.73;;;2.73;;
18168;SDS011;49877;50.398;30.324;2022-09-09T13:00:48;6.87;;;1.60;;
18168;SDS011;49877;50.398;30.324;2022-09-09T13:03:18;3.50;;;2.00;;
18168;SDS011;49877;50.398;30.324;2022-09-09T13:05:46;6.53;;;1.80;;
18168;SDS011;49877;50.398;30.324;2022-09-09T13:08:15;4.13;;;1.80;;
18168;SDS011;49877;50.398;30.324;2022-09-09T13:10:46;4.83;;;2.30;;
18168;SDS011;49877;50.398;30.324;2022-09-09T13:13:21;6.57;;;2.30;;
18168;SDS011;49877;50.398;30.324;2022-09-09T13:15:50;4.97;;;2.10;;
18168;SDS011;49877;50.398;30.324;2022-09-09T13:18:21;7.07;;;2.20;;
18168;SDS011;49877;50.398;30.324;2022-09-09T13:20:50;3.80;;;2.10;;
18168;SDS011;49877;50.398;30.324;2022-09-09T13:23:19;7.10;;;2.37;;
18168;SDS011;49877;50.398;30.324;2022-09-09T13:25:54;7.57;;;2.30;;
18168;SDS011;49877;50.398;30.324;2022-09-09T13:28:22;4.83;;;2.53;;
18168;SDS011;49877;50.398;30.324;2022-09-09T13:30:55;6.30;;;2.47;;
18168;SDS011;49877;50.398;30.324;2022-09-09T13:33:29;4.87;;;2.47;;
18168;SDS011;49877;50.398;30.324;2022-09-09T13:36:02;9.70;;;3.00;;
18168;SDS011;49877;50.398;30.324;2022-09-09T13:38:32;4.40;;;2.27;;
18168;SDS011;49877;50.398;30.324;2022-09-09T13:41:03;3.43;;;2.23;;
18168;SDS011;49877;50.398;30.324;2022-09-09T13:43:34;5.37;;;2.30;;
18168;SDS011;49877;50.398;30.324;2022-09-09T13:46:21;4.43;;;2.50;;
18168;SDS011;49877;50.398;30.324;2022-09-09T13:48:55;4.50;;;2.50;;
18168;SDS011;49877;50.398;30.324;2022-09-09T13:51:28;7.27;;;2.63;;
18168;SDS011;49877;50.398;30.324;2022-09-09T13:54:00;6.73;;;2.27;;
18168;SDS011;49877;50.398;30.324;2022-09-09T13:56:27;5.70;;;2.60;;
18168;SDS011;49877;50.398;30.324;2022-09-09T13:58:54;9.20;;;2.30;;
18168;SDS011;49877;50.398;30.324;2022-09-09T14:01:22;6.10;;;2.40;;
18168;SDS011;49877;50.398;30.324;2022-09-09T14:03:49;6.37;;;2.30;;
18168;SDS011;49877;50.398;30.324;2022-09-09T14:06:18;4.20;;;2.23;;
18168;SDS011;49877;50.398;30.324;2022-09-09T14:08:46;5.97;;;2.33;;
18168;SDS011;49877;50.398;30.324;2022-09-09T14:11:14;11.03;;;2.83;;
18168;SDS011;49877;50.398;30.324;2022-09-09T14:13:41;5.57;;;2.90;;
18168;SDS011;49877;50.398;30.324;2022-09-09T14:16:08;6.90;;;2.97;;
18168;SDS011;49877;50.398;30.324;2022-09-09T14:18:35;11.07;;;4.03;;
18168;SDS011;49877;50.398;30.324;2022-09-09T14:21:02;10.47;;;4.23;;
18168;SDS011;49877;50.398;30.324;2022-09-09T14:23:29;7.23;;;2.77;;
18168;SDS011;49877;50.398;30.324;2022-09-09T14:25:57;5.10;;;2.67;;
18168;SDS011;49877;50.398;30.324;2022-09-09T14:28:25;5.50;;;3.03;;
18168;SDS011;49877;50.398;30.324;2022-09-09T14:30:53;9.53;;;3.23;;
18168;SDS011;49877;50.398;30.324;2022-09-09T14:33:20;8.57;;;4.00;;
18168;SDS011;49877;50.398;30.324;2022-09-09T14:35:47;8.87;;;4.03;;
18168;SDS011;49877;50.398;30.324;2022-09-09T14:38:14;9.37;;;3.67;;
18168;SDS011;49877;50.398;30.324;2022-09-09T14:40:41;11.83;;;4.20;;
18168;SDS011;49877;50.398;30.324;2022-09-09T14:43:12;6.03;;;3.23;;
18168;SDS011;49877;50.398;30.324;2022-09-09T14:45:40;6.37;;;2.70;;
18168;SDS011;49877;50.398;30.324;2022-09-09T14:48:08;7.13;;;2.47;;
18168;SDS011;49877;50.398;30.324;2022-09-09T14:50:35;6.80;;;2.40;;
18168;SDS011;49877;50.398;30.324;2022-09-09T14:53:05;90.77;;;6.83;;
18168;SDS011;49877;50.398;30.324;2022-09-09T14:55:32;7.33;;;2.80;;
18168;SDS011;49877;50.398;30.324;2022-09-09T14:57:58;3.70;;;2.80;;
18168;SDS011;49877;50.398;30.324;2022-09-09T15:00:25;5.03;;;2.30;;
18168;SDS011;49877;50.398;30.324;2022-09-09T15:02:54;9.17;;;2.40;;
18168;SDS011;49877;50.398;30.324;2022-09-09T15:05:22;4.53;;;2.47;;
18168;SDS011;49877;50.398;30.324;2022-09-09T15:07:49;4.07;;;2.53;;
18168;SDS011;49877;50.398;30.324;2022-09-09T15:10:16;6.07;;;2.77;;
18168;SDS011;49877;50.398;30.324;2022-09-09T15:12:43;9.80;;;3.00;;
18168;SDS011;49877;50.398;30.324;2022-09-09T15:15:10;5.67;;;2.60;;
18168;SDS011;49877;50.398;30.324;2022-09-09T15:17:37;7.33;;;3.07;;
18168;SDS011;49877;50.398;30.324;2022-09-09T15:20:06;7.77;;;2.93;;
18168;SDS011;49877;50.398;30.324;2022-09-09T15:22:34;18.10;;;4.30;;
18168;SDS011;49877;50.398;30.324;2022-09-09T15:25:03;12.63;;;4.00;;
18168;SDS011;49877;50.398;30.324;2022-09-09T15:27:30;18.63;;;4.93;;